aviador You're here:

SAWE Decoded Metar

RIO GRANDE in ARGENTINA
Report Time2018-01-19 18:00:00
UTC Time2018-01-19 18:59:14
Flight Rules mvfr MVFR
Wind320° at 35 Gusting to 48 kt
W.Decomp.*RWY 25: 18.5 kt HW 29.7 kt RCW
W.Rank320° ranks 5
Current wind is above 320° avg. (12.0)
Visibility9999 m
Phenomena:N/A
Clouds:Broken 025 Hf
Broken 070 Hf
Expected CloudBase > 3,600 ft AGL from Temp-Dew spread
Ceiling2,500 ft
Temp22°C (ISA +7)
Dew Point13°C (57% RH)
AAT10.4°C
QNH0990 hPa
Density Alt1,886 ft
Elevation72 ft
Report Wrong Elevation
Raw Report
METAR SAWE 191800Z 32035G48KT 9999 BKN025 BKN070 22/13 Q0990=

Extra information for SAWE:More info

Metar Taf Metar & Taf Last 4 Metars F.Rules Stats Wind Profile Meteogram Temp Stats Airport Information Weather charts Add Link Nearby VenuesMetar ALERT Operation Metar Decoded Social comments